Time;durP1;ratioP1;P1;durP2;ratioP2;P2;SDS_P1;SDS_P2;PMS_P1;PMS_P2;Temp;Humidity;BMP_temperature;BMP_pressure;BME280_temperature;BME280_humidity;BME280_pressure;Samples;Min_cycle;Max_cycle;Signal;HPM_P1;HPM_P2
2023/07/04 00:00:27;;;;;;;2.50;2.05;;;;;;;;;;6024360;29;20300;-71
2023/07/04 00:03:31;;;;;;;2.30;2.10;;;;;;;;;;6024514;29;20350;-69
2023/07/04 00:06:36;;;;;;;4.57;2.00;;;;;;;;;;6020723;29;20397;-70
2023/07/04 00:09:41;;;;;;;3.95;1.80;;;;;;;;;;6001724;29;20247;-69
2023/07/04 00:12:47;;;;;;;4.78;1.92;;;;;;;;;;6001740;29;20255;-69
2023/07/04 00:15:53;;;;;;;4.80;1.95;;;;;;;;;;6001214;29;20287;-69
2023/07/04 00:18:58;;;;;;;6.70;2.08;;;;;;;;;;6001353;29;20255;-69
2023/07/04 00:22:04;;;;;;;6.45;2.00;;;;;;;;;;6000887;29;20247;-69
2023/07/04 00:25:09;;;;;;;6.78;2.35;;;;;;;;;;6000114;29;20299;-69
2023/07/04 00:28:15;;;;;;;4.75;2.35;;;;;;;;;;6001181;29;20240;-69
2023/07/04 00:31:23;;;;;;;2.08;1.70;;;;;;;;;;6001228;29;20255;-70
2023/07/04 00:34:29;;;;;;;6.05;2.08;;;;;;;;;;6014389;29;20551;-69
2023/07/04 00:37:34;;;;;;;4.00;1.63;;;;;;;;;;6000804;29;20248;-70
2023/07/04 00:40:39;;;;;;;4.40;1.70;;;;;;;;;;6000512;29;20524;-70
2023/07/04 00:43:57;;;;;;;1.73;1.63;;;;;;;;;;6000870;29;20279;-69
2023/07/04 00:47:06;;;;;;;6.25;1.95;;;;;;;;;;6000247;29;20244;-70
2023/07/04 00:50:13;;;;;;;10.38;2.55;;;;;;;;;;6013636;29;20283;-70
2023/07/04 00:53:19;;;;;;;2.10;1.90;;;;;;;;;;6000765;29;20321;-70
2023/07/04 00:56:25;;;;;;;2.42;2.20;;;;;;;;;;5999127;29;20292;-70
2023/07/04 00:59:35;;;;;;;3.65;2.15;;;;;;;;;;6014252;29;20400;-70
2023/07/04 01:02:39;;;;;;;5.32;2.00;;;;;;;;;;6000643;29;20423;-70
2023/07/04 01:05:47;;;;;;;5.57;1.90;;;;;;;;;;6013832;29;20295;-72
2023/07/04 01:08:56;;;;;;;3.47;1.90;;;;;;;;;;6020298;29;20250;-70
2023/07/04 01:12:02;;;;;;;4.45;2.20;;;;;;;;;;6021237;29;20293;-70
2023/07/04 01:15:09;;;;;;;3.85;2.00;;;;;;;;;;6020982;29;20282;-71
2023/07/04 01:18:14;;;;;;;7.07;1.88;;;;;;;;;;6023461;29;20232;-70
2023/07/04 01:21:21;;;;;;;5.50;2.10;;;;;;;;;;6006434;29;20283;-70
2023/07/04 01:24:31;;;;;;;4.78;2.10;;;;;;;;;;6022855;29;20278;-70
2023/07/04 01:27:37;;;;;;;7.40;2.47;;;;;;;;;;6022788;29;20251;-69
2023/07/04 01:30:43;;;;;;;10.63;2.00;;;;;;;;;;6022768;29;20258;-69
2023/07/04 01:33:48;;;;;;;2.50;1.90;;;;;;;;;;6022698;29;20255;-70
2023/07/04 01:36:53;;;;;;;4.28;1.85;;;;;;;;;;6026764;29;20262;-70
2023/07/04 01:39:58;;;;;;;8.07;1.95;;;;;;;;;;6027482;29;20264;-70
2023/07/04 01:43:05;;;;;;;3.08;1.80;;;;;;;;;;6027397;29;20239;-69
2023/07/04 01:46:10;;;;;;;4.40;1.75;;;;;;;;;;6027090;29;20290;-71
2023/07/04 01:49:16;;;;;;;6.22;2.00;;;;;;;;;;6010602;29;20274;-72
2023/07/04 01:52:21;;;;;;;6.07;1.92;;;;;;;;;;6027033;29;20250;-70
2023/07/04 01:55:26;;;;;;;7.85;1.98;;;;;;;;;;6027153;29;20248;-69
2023/07/04 01:58:32;;;;;;;5.40;2.20;;;;;;;;;;6026882;29;20251;-70
2023/07/04 02:01:37;;;;;;;3.22;1.80;;;;;;;;;;6024745;29;20278;-70
2023/07/04 02:04:41;;;;;;;1.95;1.60;;;;;;;;;;6026783;29;20278;-70
2023/07/04 02:07:46;;;;;;;3.83;2.10;;;;;;;;;;6014617;29;20252;-69
2023/07/04 02:10:51;;;;;;;14.77;2.10;;;;;;;;;;6003711;29;20339;-68
2023/07/04 02:13:59;;;;;;;9.52;2.20;;;;;;;;;;6017509;29;20279;-70
2023/07/04 02:17:04;;;;;;;5.95;2.30;;;;;;;;;;6003410;29;20351;-69
2023/07/04 02:20:09;;;;;;;4.30;1.85;;;;;;;;;;6003095;29;20264;-70
2023/07/04 02:23:14;;;;;;;11.20;2.17;;;;;;;;;;6017011;29;20374;-70
2023/07/04 02:26:18;;;;;;;3.13;1.92;;;;;;;;;;6003456;29;20275;-69
2023/07/04 02:29:25;;;;;;;5.38;1.70;;;;;;;;;;6003815;29;20251;-68
2023/07/04 02:32:29;;;;;;;3.65;1.65;;;;;;;;;;6017347;29;20276;-69
2023/07/04 02:35:34;;;;;;;4.85;1.90;;;;;;;;;;6016022;29;20279;-69
2023/07/04 02:38:39;;;;;;;3.00;1.90;;;;;;;;;;6016640;29;20279;-69
2023/07/04 02:41:44;;;;;;;4.55;2.15;;;;;;;;;;6002989;29;20245;-69
2023/07/04 02:44:51;;;;;;;4.28;1.73;;;;;;;;;;6017409;29;20275;-69
2023/07/04 02:47:55;;;;;;;5.43;2.17;;;;;;;;;;6002263;29;20251;-70
2023/07/04 02:51:01;;;;;;;1.80;1.70;;;;;;;;;;5986911;29;20278;-70
2023/07/04 02:54:06;;;;;;;5.97;1.92;;;;;;;;;;5986508;29;20282;-70
2023/07/04 02:57:13;;;;;;;6.78;2.03;;;;;;;;;;6017030;29;20283;-69
2023/07/04 03:00:21;;;;;;;4.70;1.60;;;;;;;;;;6017099;29;20275;-70
2023/07/04 03:03:28;;;;;;;3.38;1.90;;;;;;;;;;6017120;29;20409;-71
2023/07/04 03:06:37;;;;;;;10.30;2.47;;;;;;;;;;6019497;29;20290;-69
2023/07/04 03:09:43;;;;;;;2.40;1.90;;;;;;;;;;6024258;29;20274;-69
2023/07/04 03:12:48;;;;;;;2.25;1.90;;;;;;;;;;6008943;29;20286;-69
2023/07/04 03:15:55;;;;;;;7.13;2.30;;;;;;;;;;6024210;29;20306;-70
2023/07/04 03:19:01;;;;;;;8.25;2.10;;;;;;;;;;6024409;29;20275;-70
2023/07/04 03:22:07;;;;;;;8.82;2.53;;;;;;;;;;6024001;29;20279;-70
2023/07/04 03:25:15;;;;;;;5.10;2.03;;;;;;;;;;6024356;29;20279;-71
2023/07/04 03:28:22;;;;;;;11.15;2.10;;;;;;;;;;6023841;29;20283;-70
2023/07/04 03:31:29;;;;;;;2.90;2.17;;;;;;;;;;6025235;29;20319;-70
2023/07/04 03:34:34;;;;;;;7.53;2.03;;;;;;;;;;6024002;29;20274;-70
2023/07/04 03:37:39;;;;;;;4.13;2.03;;;;;;;;;;6008769;29;20278;-70
2023/07/04 03:40:43;;;;;;;7.70;2.20;;;;;;;;;;6025002;29;20240;-69
2023/07/04 03:43:48;;;;;;;5.78;1.90;;;;;;;;;;6024912;29;20313;-70
2023/07/04 03:46:54;;;;;;;6.57;2.70;;;;;;;;;;6025182;29;20431;-70
2023/07/04 03:49:58;;;;;;;6.28;2.45;;;;;;;;;;6023276;29;20278;-70
2023/07/04 03:53:03;;;;;;;5.57;2.50;;;;;;;;;;6008424;29;20510;-70
2023/07/04 03:56:08;;;;;;;6.95;2.67;;;;;;;;;;6024768;29;20454;-70
2023/07/04 03:59:13;;;;;;;5.15;2.25;;;;;;;;;;6023787;29;20242;-70
2023/07/04 04:02:19;;;;;;;2.92;2.05;;;;;;;;;;6022777;29;20279;-71
2023/07/04 04:05:24;;;;;;;8.05;2.10;;;;;;;;;;6024666;29;20406;-70
2023/07/04 04:08:28;;;;;;;4.53;2.40;;;;;;;;;;6007942;29;20272;-71
2023/07/04 04:11:33;;;;;;;4.95;2.10;;;;;;;;;;6001707;29;20439;-70
2023/07/04 04:14:38;;;;;;;3.47;1.90;;;;;;;;;;6001922;29;20276;-70
2023/07/04 04:17:44;;;;;;;6.20;2.15;;;;;;;;;;6001658;29;20295;-71
2023/07/04 04:20:50;;;;;;;3.30;2.13;;;;;;;;;;6001299;29;20263;-71
2023/07/04 04:23:55;;;;;;;6.75;2.03;;;;;;;;;;6001160;29;20259;-69
2023/07/04 04:27:03;;;;;;;5.10;2.40;;;;;;;;;;6000574;29;20580;-69
2023/07/04 04:30:10;;;;;;;7.88;2.40;;;;;;;;;;6000420;29;20255;-70
2023/07/04 04:33:16;;;;;;;3.13;1.73;;;;;;;;;;6000669;29;20264;-69
2023/07/04 04:36:21;;;;;;;2.30;2.10;;;;;;;;;;6000161;29;20409;-70
2023/07/04 04:39:29;;;;;;;10.75;2.58;;;;;;;;;;6000941;29;20255;-71
2023/07/04 04:42:34;;;;;;;5.78;2.42;;;;;;;;;;6000538;29;20247;-70
2023/07/04 04:45:40;;;;;;;4.63;1.85;;;;;;;;;;6000309;29;20248;-69
2023/07/04 04:48:46;;;;;;;2.45;2.22;;;;;;;;;;6000055;29;20290;-69
2023/07/04 04:51:51;;;;;;;5.55;2.20;;;;;;;;;;6000272;29;20256;-70
2023/07/04 04:54:56;;;;;;;6.82;2.20;;;;;;;;;;6000534;29;20251;-70
2023/07/04 04:58:01;;;;;;;4.88;2.42;;;;;;;;;;6000824;29;20261;-69
2023/07/04 05:01:11;;;;;;;2.13;1.98;;;;;;;;;;5999789;29;20454;-69
2023/07/04 05:04:17;;;;;;;5.72;2.25;;;;;;;;;;5998770;29;20355;-69
2023/07/04 05:07:23;;;;;;;10.95;2.70;;;;;;;;;;6008455;29;20268;-70
2023/07/04 05:10:28;;;;;;;7.53;2.15;;;;;;;;;;6021962;29;20243;-69
2023/07/04 05:13:33;;;;;;;9.82;2.38;;;;;;;;;;6022253;29;20540;-70
2023/07/04 05:16:37;;;;;;;3.50;1.95;;;;;;;;;;6022455;29;20298;-69
2023/07/04 05:19:44;;;;;;;3.22;1.95;;;;;;;;;;6022435;29;20247;-70
2023/07/04 05:22:48;;;;;;;9.35;2.00;;;;;;;;;;6020621;29;20286;-69
2023/07/04 05:26:00;;;;;;;6.13;2.50;;;;;;;;;;6022240;29;20438;-69
2023/07/04 05:29:08;;;;;;;5.38;2.05;;;;;;;;;;6022533;29;20270;-69
2023/07/04 05:32:12;;;;;;;13.02;2.63;;;;;;;;;;6022355;29;20243;-69
2023/07/04 05:35:20;;;;;;;3.28;2.42;;;;;;;;;;6022311;29;20555;-70
2023/07/04 05:38:24;;;;;;;5.00;1.70;;;;;;;;;;6022074;29;20366;-70
2023/07/04 05:41:30;;;;;;;4.95;2.22;;;;;;;;;;6021866;29;20255;-70
2023/07/04 05:44:36;;;;;;;8.32;2.30;;;;;;;;;;6021980;29;20242;-69
2023/07/04 05:47:41;;;;;;;9.43;2.03;;;;;;;;;;6022266;29;20270;-69
2023/07/04 05:50:54;;;;;;;8.48;2.58;;;;;;;;;;6021752;29;20243;-69
2023/07/04 05:53:59;;;;;;;7.82;2.03;;;;;;;;;;6021996;29;20243;-69
2023/07/04 05:57:04;;;;;;;7.70;2.22;;;;;;;;;;6021871;29;20252;-70
2023/07/04 06:00:10;;;;;;;6.63;2.38;;;;;;;;;;6015005;29;20519;-69
2023/07/04 06:03:18;;;;;;;8.43;2.15;;;;;;;;;;6029588;29;20268;-69
2023/07/04 06:06:30;;;;;;;9.25;2.20;;;;;;;;;;6020350;29;20259;-70
2023/07/04 06:09:35;;;;;;;7.28;1.70;;;;;;;;;;5999344;29;20431;-70
2023/07/04 06:12:39;;;;;;;7.00;2.30;;;;;;;;;;5999020;29;20429;-69
2023/07/04 06:15:44;;;;;;;12.55;1.88;;;;;;;;;;5994091;29;20479;-70
2023/07/04 06:18:48;;;;;;;4.50;2.42;;;;;;;;;;5976543;29;20252;-69
2023/07/04 06:21:55;;;;;;;8.77;2.15;;;;;;;;;;5977334;29;20438;-70
2023/07/04 06:25:00;;;;;;;6.80;2.22;;;;;;;;;;5981120;29;20244;-69
2023/07/04 06:28:04;;;;;;;2.17;1.98;;;;;;;;;;5980717;29;20264;-69
2023/07/04 06:31:13;;;;;;;6.05;2.25;;;;;;;;;;5965361;29;20275;-70
2023/07/04 06:34:17;;;;;;;8.48;2.20;;;;;;;;;;5980885;29;20245;-70
2023/07/04 06:37:23;;;;;;;3.45;2.17;;;;;;;;;;5994001;29;20581;-71
2023/07/04 06:40:28;;;;;;;3.80;1.88;;;;;;;;;;5980626;29;20249;-70
2023/07/04 06:43:33;;;;;;;7.97;2.20;;;;;;;;;;5980840;29;20248;-70
2023/07/04 06:46:38;;;;;;;3.28;2.42;;;;;;;;;;5980667;29;20240;-69
2023/07/04 06:49:42;;;;;;;6.03;2.38;;;;;;;;;;5981143;29;20283;-71
2023/07/04 06:52:48;;;;;;;4.65;2.28;;;;;;;;;;5980532;29;20248;-69
2023/07/04 06:55:53;;;;;;;6.50;1.80;;;;;;;;;;5980457;29;20252;-70
2023/07/04 06:58:59;;;;;;;4.65;2.05;;;;;;;;;;5980534;29;20320;-70
2023/07/04 07:02:04;;;;;;;5.03;1.95;;;;;;;;;;5980246;29;20252;-70
2023/07/04 07:05:09;;;;;;;3.72;2.08;;;;;;;;;;5979885;29;20248;-70
2023/07/04 07:08:16;;;;;;;4.07;1.63;;;;;;;;;;5979785;29;20526;-69
2023/07/04 07:11:22;;;;;;;3.95;2.13;;;;;;;;;;5979798;29;20268;-69
2023/07/04 07:14:27;;;;;;;6.05;1.65;;;;;;;;;;5979709;29;20284;-69
2023/07/04 07:17:34;;;;;;;9.65;1.80;;;;;;;;;;6015686;29;20299;-68
2023/07/04 07:20:41;;;;;;;5.78;1.92;;;;;;;;;;6024738;29;20267;-70
2023/07/04 07:23:48;;;;;;;3.08;2.13;;;;;;;;;;6024700;29;20246;-71
2023/07/04 07:26:57;;;;;;;4.50;1.80;;;;;;;;;;6025015;29;20251;-69
2023/07/04 07:30:02;;;;;;;7.63;2.20;;;;;;;;;;6022743;29;20568;-71
2023/07/04 07:33:06;;;;;;;2.92;1.63;;;;;;;;;;6024191;29;20430;-69
2023/07/04 07:36:13;;;;;;;2.05;1.70;;;;;;;;;;6022632;29;20328;-70
2023/07/04 07:39:19;;;;;;;5.57;2.00;;;;;;;;;;6024112;29;20250;-69
2023/07/04 07:42:24;;;;;;;5.55;1.83;;;;;;;;;;6024627;29;20260;-70
2023/07/04 07:45:28;;;;;;;4.38;2.10;;;;;;;;;;6024191;29;20251;-70
2023/07/04 07:48:33;;;;;;;9.15;2.00;;;;;;;;;;6024155;29;20271;-70
2023/07/04 07:51:38;;;;;;;2.38;1.60;;;;;;;;;;6007658;29;20298;-69
2023/07/04 07:54:44;;;;;;;5.25;2.05;;;;;;;;;;6024561;29;20323;-69
2023/07/04 07:57:48;;;;;;;3.63;1.63;;;;;;;;;;6024550;29;20255;-68
2023/07/04 08:00:53;;;;;;;1.83;1.73;;;;;;;;;;6024235;29;20263;-70
2023/07/04 08:03:59;;;;;;;10.38;2.05;;;;;;;;;;6022218;29;20275;-69
2023/07/04 08:07:04;;;;;;;5.50;2.10;;;;;;;;;;6017050;29;20299;-69
2023/07/04 08:10:10;;;;;;;2.35;1.55;;;;;;;;;;6001311;29;20272;-68
2023/07/04 08:13:15;;;;;;;3.63;2.15;;;;;;;;;;6001424;29;20243;-69
2023/07/04 08:16:21;;;;;;;5.40;1.90;;;;;;;;;;6000589;29;20293;-70
2023/07/04 08:19:27;;;;;;;5.53;2.10;;;;;;;;;;6002483;29;20255;-69
2023/07/04 08:22:31;;;;;;;9.98;2.40;;;;;;;;;;6001251;29;20251;-70
2023/07/04 08:25:40;;;;;;;5.72;1.70;;;;;;;;;;6001181;29;20247;-70
2023/07/04 08:28:44;;;;;;;3.70;1.50;;;;;;;;;;6000669;29;20271;-68
2023/07/04 08:31:49;;;;;;;5.32;1.90;;;;;;;;;;6001059;29;20248;-70
2023/07/04 08:34:53;;;;;;;2.95;1.77;;;;;;;;;;6001192;29;20256;-69
2023/07/04 08:37:58;;;;;;;5.18;1.70;;;;;;;;;;5999232;29;20479;-69
2023/07/04 08:41:09;;;;;;;4.20;1.77;;;;;;;;;;6000640;29;20260;-69
2023/07/04 08:44:17;;;;;;;2.22;1.45;;;;;;;;;;6000127;29;20288;-69
2023/07/04 08:47:25;;;;;;;2.10;1.58;;;;;;;;;;6000161;29;20251;-70
2023/07/04 08:50:31;;;;;;;5.25;1.60;;;;;;;;;;6000371;29;20271;-70
2023/07/04 08:53:37;;;;;;;2.58;1.70;;;;;;;;;;6000526;29;20251;-70
2023/07/04 08:56:43;;;;;;;3.40;1.63;;;;;;;;;;6000805;29;20252;-68
2023/07/04 08:59:50;;;;;;;4.25;1.70;;;;;;;;;;6000480;29;20255;-69
2023/07/04 09:03:15;;;;;;;1.98;1.83;;;;;;;;;;5999786;29;20247;-72
2023/07/04 09:06:27;;;;;;;3.22;1.50;;;;;;;;;;5999261;29;20248;-69
2023/07/04 09:09:39;;;;;;;1.92;1.40;;;;;;;;;;6015142;29;20314;-69
2023/07/04 09:12:45;;;;;;;4.05;1.63;;;;;;;;;;6022625;29;20255;-70
2023/07/04 09:15:50;;;;;;;5.95;1.52;;;;;;;;;;6022619;29;20303;-69
2023/07/04 09:18:58;;;;;;;2.97;1.58;;;;;;;;;;6022244;29;20238;-69
2023/07/04 09:22:04;;;;;;;3.35;1.95;;;;;;;;;;6022223;29;20440;-70
2023/07/04 09:25:10;;;;;;;5.65;1.73;;;;;;;;;;6022614;29;20277;-70
2023/07/04 09:28:16;;;;;;;3.65;1.80;;;;;;;;;;6022456;29;20287;-69
2023/07/04 09:31:22;;;;;;;2.95;1.58;;;;;;;;;;6022316;29;20319;-69
2023/07/04 09:34:33;;;;;;;1.33;1.30;;;;;;;;;;6022611;29;20243;-70
2023/07/04 09:37:56;;;;;;;6.45;1.95;;;;;;;;;;6022277;29;20519;-69
2023/07/04 09:41:02;;;;;;;2.55;1.77;;;;;;;;;;6022264;29;20255;-71
2023/07/04 09:44:16;;;;;;;6.75;2.00;;;;;;;;;;6021987;29;20247;-70
2023/07/04 09:47:25;;;;;;;2.38;1.65;;;;;;;;;;6022034;29;20256;-70
2023/07/04 09:50:32;;;;;;;7.68;1.77;;;;;;;;;;6022343;29;20270;-68
2023/07/04 09:53:36;;;;;;;3.33;1.52;;;;;;;;;;6022520;29;20242;-71
2023/07/04 09:56:41;;;;;;;2.00;1.48;;;;;;;;;;6022973;29;20247;-69
2023/07/04 09:59:48;;;;;;;1.88;1.58;;;;;;;;;;6026823;29;20304;-68
2023/07/04 10:02:54;;;;;;;5.97;1.67;;;;;;;;;;6026675;29;20439;-70
2023/07/04 10:05:59;;;;;;;5.18;1.67;;;;;;;;;;6026255;29;20417;-70
2023/07/04 10:09:08;;;;;;;3.58;1.48;;;;;;;;;;6004559;29;20248;-69
2023/07/04 10:12:23;;;;;;;1.77;1.60;;;;;;;;;;6003280;29;20244;-71
2023/07/04 10:15:41;;;;;;;1.70;1.35;;;;;;;;;;6003126;29;20598;-69
2023/07/04 10:18:45;;;;;;;3.05;2.05;;;;;;;;;;6003430;29;20240;-70
2023/07/04 10:21:52;;;;;;;1.73;1.40;;;;;;;;;;6003036;29;20255;-71
2023/07/04 10:24:58;;;;;;;2.05;1.52;;;;;;;;;;6003048;29;20409;-70
2023/07/04 10:28:12;;;;;;;2.33;1.60;;;;;;;;;;6003335;29;20251;-69
2023/07/04 10:31:21;;;;;;;2.10;1.60;;;;;;;;;;6002995;29;20295;-70
2023/07/04 10:34:27;;;;;;;2.13;1.42;;;;;;;;;;6003109;29;20256;-68
2023/07/04 10:37:34;;;;;;;2.67;1.60;;;;;;;;;;6002880;29;20319;-69
2023/07/04 10:40:41;;;;;;;1.98;1.88;;;;;;;;;;6002822;29;20252;-69
2023/07/04 10:43:49;;;;;;;5.20;1.80;;;;;;;;;;6002793;29;20508;-69
2023/07/04 10:46:58;;;;;;;4.00;1.70;;;;;;;;;;6001520;29;20290;-70
2023/07/04 10:50:06;;;;;;;7.40;1.83;;;;;;;;;;6003026;29;20267;-70
2023/07/04 10:53:10;;;;;;;3.15;1.83;;;;;;;;;;6003059;29;20247;-69
2023/07/04 10:56:21;;;;;;;3.33;1.70;;;;;;;;;;6002659;29;20252;-69
2023/07/04 10:59:28;;;;;;;3.60;1.48;;;;;;;;;;6003156;29;20248;-69
2023/07/04 11:02:38;;;;;;;3.75;1.70;;;;;;;;;;6002218;29;20244;-69
2023/07/04 11:05:45;;;;;;;3.72;1.60;;;;;;;;;;6002113;29;20244;-69
2023/07/04 11:08:50;;;;;;;6.25;2.10;;;;;;;;;;6021508;29;20247;-69
2023/07/04 11:12:01;;;;;;;5.18;1.52;;;;;;;;;;6025016;29;20285;-68
2023/07/04 11:15:11;;;;;;;4.45;1.83;;;;;;;;;;6025278;29;20508;-70
2023/07/04 11:18:24;;;;;;;4.68;1.77;;;;;;;;;;6024493;29;20303;-69
2023/07/04 11:21:28;;;;;;;12.00;1.90;;;;;;;;;;6025162;29;20247;-69
2023/07/04 11:24:35;;;;;;;2.25;1.58;;;;;;;;;;6025267;29;20255;-69
2023/07/04 11:27:40;;;;;;;2.08;1.92;;;;;;;;;;6025172;29;20243;-69
2023/07/04 11:30:46;;;;;;;4.18;1.73;;;;;;;;;;6024681;29;20414;-70
2023/07/04 11:34:13;;;;;;;2.05;1.92;;;;;;;;;;6024515;29;20243;-68
2023/07/04 11:37:26;;;;;;;8.65;1.63;;;;;;;;;;6024527;29;20290;-70
2023/07/04 11:40:33;;;;;;;4.55;1.67;;;;;;;;;;6024343;29;20366;-69
2023/07/04 11:43:43;;;;;;;2.95;1.90;;;;;;;;;;6024827;29;20239;-70
2023/07/04 11:46:58;;;;;;;2.78;1.77;;;;;;;;;;6024515;29;20255;-68
2023/07/04 11:50:10;;;;;;;5.78;1.95;;;;;;;;;;6024105;29;20393;-70
2023/07/04 11:53:18;;;;;;;1.88;1.55;;;;;;;;;;6007563;29;20275;-69
2023/07/04 11:56:36;;;;;;;4.20;1.58;;;;;;;;;;6023946;29;20251;-69
2023/07/04 11:59:43;;;;;;;2.97;1.60;;;;;;;;;;6024294;29;20247;-70
2023/07/04 12:02:48;;;;;;;5.18;2.17;;;;;;;;;;6024067;29;20255;-70
2023/07/04 12:05:55;;;;;;;5.72;1.63;;;;;;;;;;6023973;29;20247;-69
2023/07/04 12:09:00;;;;;;;1.42;1.42;;;;;;;;;;6002394;29;20256;-70
2023/07/04 12:12:07;;;;;;;5.07;1.70;;;;;;;;;;6001191;29;20282;-69
2023/07/04 12:15:14;;;;;;;4.18;1.75;;;;;;;;;;6000601;29;20240;-70
2023/07/04 12:18:23;;;;;;;4.15;1.52;;;;;;;;;;6014275;29;20612;-69
2023/07/04 12:21:32;;;;;;;3.03;1.88;;;;;;;;;;6000413;29;20252;-70
2023/07/04 12:24:37;;;;;;;2.33;1.70;;;;;;;;;;6001118;29;20244;-69
2023/07/04 12:27:43;;;;;;;2.25;1.48;;;;;;;;;;6000767;29;20415;-70
2023/07/04 12:30:51;;;;;;;5.55;1.65;;;;;;;;;;6014637;29;20298;-69
2023/07/04 12:33:59;;;;;;;2.38;1.58;;;;;;;;;;5984860;29;20283;-69
2023/07/04 12:37:14;;;;;;;4.70;1.90;;;;;;;;;;6000840;29;20259;-70
2023/07/04 12:40:20;;;;;;;2.83;1.55;;;;;;;;;;6000426;29;20256;-69
2023/07/04 12:43:29;;;;;;;3.15;1.40;;;;;;;;;;5984428;29;20283;-69
2023/07/04 12:46:43;;;;;;;2.67;1.50;;;;;;;;;;6000902;29;20252;-69
2023/07/04 12:49:52;;;;;;;2.13;1.60;;;;;;;;;;6000364;29;20267;-70
2023/07/04 12:52:58;;;;;;;1.50;1.40;;;;;;;;;;6000343;29;20267;-70
2023/07/04 12:56:04;;;;;;;1.40;1.30;;;;;;;;;;6000557;29;20252;-69
2023/07/04 12:59:32;;;;;;;2.05;1.48;;;;;;;;;;6000526;29;20346;-70
2023/07/04 13:02:36;;;;;;;3.72;1.55;;;;;;;;;;6000544;29;20523;-68
2023/07/04 13:05:43;;;;;;;1.25;1.25;;;;;;;;;;6000384;29;20536;-70
2023/07/04 13:08:51;;;;;;;2.05;1.48;;;;;;;;;;6019415;29;20550;-69
2023/07/04 13:11:56;;;;;;;4.65;1.45;;;;;;;;;;6022633;29;20270;-69
2023/07/04 13:15:11;;;;;;;2.50;1.33;;;;;;;;;;6023396;29;20532;-72
2023/07/04 13:18:16;;;;;;;3.35;1.58;;;;;;;;;;6022961;29;20251;-69
2023/07/04 13:21:32;;;;;;;2.45;1.50;;;;;;;;;;6022517;29;20274;-69
2023/07/04 13:24:38;;;;;;;1.20;1.20;;;;;;;;;;6023352;29;20329;-70
2023/07/04 13:27:46;;;;;;;3.33;1.50;;;;;;;;;;6023298;29;20247;-70
2023/07/04 13:30:50;;;;;;;4.43;2.00;;;;;;;;;;6021032;29;20435;-69
2023/07/04 13:34:10;;;;;;;1.45;1.45;;;;;;;;;;6022920;29;20252;-70
2023/07/04 13:37:15;;;;;;;3.70;1.20;;;;;;;;;;6022582;29;20263;-70
2023/07/04 13:40:21;;;;;;;3.95;1.20;;;;;;;;;;6022743;29;20251;-70
2023/07/04 13:43:25;;;;;;;1.58;1.42;;;;;;;;;;6022512;29;20256;-70
2023/07/04 13:46:33;;;;;;;2.53;1.60;;;;;;;;;;6022251;29;20246;-70
2023/07/04 13:49:38;;;;;;;3.03;1.45;;;;;;;;;;6022174;29;20291;-69
2023/07/04 13:52:42;;;;;;;2.35;1.23;;;;;;;;;;6021809;29;20279;-70
2023/07/04 13:55:48;;;;;;;1.58;1.27;;;;;;;;;;6022249;29;20247;-70
2023/07/04 13:58:53;;;;;;;4.00;1.58;;;;;;;;;;6022375;29;20251;-69
2023/07/04 14:01:58;;;;;;;2.33;1.48;;;;;;;;;;6022128;29;20254;-69
2023/07/04 14:05:06;;;;;;;1.48;1.23;;;;;;;;;;6021981;29;20251;-69
2023/07/04 14:08:14;;;;;;;5.63;1.60;;;;;;;;;;6006716;29;20252;-69
2023/07/04 14:11:21;;;;;;;3.00;1.42;;;;;;;;;;5999419;29;20244;-69
2023/07/04 14:14:25;;;;;;;3.28;1.60;;;;;;;;;;5999327;29;20247;-70
2023/07/04 14:17:33;;;;;;;1.85;1.27;;;;;;;;;;5980759;29;20359;-70
2023/07/04 14:20:58;;;;;;;2.65;1.40;;;;;;;;;;5961246;29;20280;-70
2023/07/04 14:24:08;;;;;;;5.78;1.90;;;;;;;;;;5977103;29;20249;-69
2023/07/04 14:27:14;;;;;;;2.55;1.20;;;;;;;;;;5976703;29;20252;-69
2023/07/04 14:30:41;;;;;;;3.95;1.50;;;;;;;;;;5976356;29;20261;-69
2023/07/04 14:33:45;;;;;;;1.40;1.30;;;;;;;;;;5976534;29;20281;-70
2023/07/04 14:36:50;;;;;;;1.23;1.20;;;;;;;;;;5976493;29;20256;-70
2023/07/04 14:39:56;;;;;;;1.48;1.27;;;;;;;;;;5976751;29;20248;-68
2023/07/04 14:43:09;;;;;;;3.28;1.30;;;;;;;;;;5977976;29;20253;-69
2023/07/04 14:46:14;;;;;;;2.85;1.33;;;;;;;;;;5964448;29;20275;-69
2023/07/04 14:49:19;;;;;;;2.90;1.55;;;;;;;;;;5980278;29;20253;-69
2023/07/04 14:52:24;;;;;;;3.28;1.30;;;;;;;;;;5980450;29;20267;-69
2023/07/04 14:55:28;;;;;;;1.33;1.20;;;;;;;;;;5980541;29;20478;-69
2023/07/04 14:58:35;;;;;;;1.10;1.10;;;;;;;;;;5980785;29;20251;-73
2023/07/04 15:01:39;;;;;;;1.17;1.17;;;;;;;;;;5980544;29;20528;-69
2023/07/04 15:04:46;;;;;;;1.00;0.90;;;;;;;;;;5980526;29;20252;-71
2023/07/04 15:07:50;;;;;;;5.22;1.50;;;;;;;;;;5980223;29;20253;-68
2023/07/04 15:10:55;;;;;;;3.60;1.95;;;;;;;;;;5979967;29;20252;-70
2023/07/04 15:14:02;;;;;;;4.32;1.83;;;;;;;;;;5979782;29;20267;-69
2023/07/04 15:17:07;;;;;;;2.45;1.70;;;;;;;;;;5979623;29;20304;-70
2023/07/04 15:20:13;;;;;;;2.75;2.00;;;;;;;;;;5980105;29;20427;-69
2023/07/04 15:23:18;;;;;;;4.00;1.77;;;;;;;;;;5979646;29;20248;-69
2023/07/04 15:26:24;;;;;;;1.38;1.30;;;;;;;;;;5979882;29;20260;-70
2023/07/04 15:29:32;;;;;;;3.95;1.30;;;;;;;;;;5979872;29;20486;-69
2023/07/04 15:32:37;;;;;;;3.60;1.45;;;;;;;;;;5979664;29;20280;-70
2023/07/04 15:35:42;;;;;;;1.45;1.38;;;;;;;;;;6002268;29;20257;-70
2023/07/04 15:38:47;;;;;;;1.30;1.30;;;;;;;;;;6002483;29;20259;-69
2023/07/04 15:41:51;;;;;;;1.27;1.17;;;;;;;;;;6002360;29;20257;-70
2023/07/04 15:44:57;;;;;;;3.83;1.40;;;;;;;;;;6001609;29;20255;-70
2023/07/04 15:48:02;;;;;;;5.30;1.42;;;;;;;;;;6001461;29;20255;-69
2023/07/04 15:51:07;;;;;;;3.08;1.65;;;;;;;;;;6001788;29;20393;-69
2023/07/04 15:54:12;;;;;;;1.55;1.45;;;;;;;;;;6001169;29;20615;-70
2023/07/04 15:57:16;;;;;;;5.75;1.30;;;;;;;;;;6001496;29;20248;-70
2023/07/04 16:00:23;;;;;;;1.40;1.40;;;;;;;;;;6001691;29;20253;-70
2023/07/04 16:03:28;;;;;;;1.60;1.30;;;;;;;;;;6001276;29;20248;-69
2023/07/04 16:06:33;;;;;;;7.10;1.67;;;;;;;;;;5998478;29;20394;-69
2023/07/04 16:09:38;;;;;;;2.85;1.20;;;;;;;;;;5978676;29;20248;-70
2023/07/04 16:12:43;;;;;;;3.90;0.93;;;;;;;;;;5978587;29;20548;-69
2023/07/04 16:15:49;;;;;;;2.65;0.98;;;;;;;;;;5978267;29;20288;-69
2023/07/04 16:18:54;;;;;;;2.08;0.90;;;;;;;;;;5992309;29;20464;-69
2023/07/04 16:21:58;;;;;;;1.40;1.25;;;;;;;;;;5978663;29;20248;-70
2023/07/04 16:25:03;;;;;;;1.65;1.20;;;;;;;;;;5978461;29;20486;-70
2023/07/04 16:28:08;;;;;;;3.78;1.27;;;;;;;;;;5985082;29;20268;-70
2023/07/04 16:31:15;;;;;;;2.10;1.20;;;;;;;;;;5978860;29;20352;-69
2023/07/04 16:34:20;;;;;;;2.60;1.08;;;;;;;;;;5978217;29;20272;-68
2023/07/04 16:37:24;;;;;;;1.67;1.00;;;;;;;;;;5978309;29;20502;-69
2023/07/04 16:40:29;;;;;;;1.48;1.38;;;;;;;;;;5978162;29;20245;-69
2023/07/04 16:43:34;;;;;;;1.13;0.98;;;;;;;;;;5978110;29;20268;-70
2023/07/04 16:46:40;;;;;;;1.23;1.23;;;;;;;;;;5977614;29;20426;-70
2023/07/04 16:49:44;;;;;;;1.08;1.08;;;;;;;;;;5977925;29;20252;-70
2023/07/04 16:52:49;;;;;;;1.35;1.13;;;;;;;;;;5977623;29;20244;-70
2023/07/04 16:55:58;;;;;;;1.13;1.10;;;;;;;;;;5977756;29;20422;-69
2023/07/04 16:59:02;;;;;;;1.92;1.42;;;;;;;;;;5978160;29;20245;-71
2023/07/04 17:02:08;;;;;;;1.13;1.13;;;;;;;;;;5977638;29;20415;-70
2023/07/04 17:05:13;;;;;;;4.20;1.23;;;;;;;;;;5977368;29;20248;-69
2023/07/04 17:08:18;;;;;;;1.55;1.10;;;;;;;;;;5977871;29;20256;-70
2023/07/04 17:11:28;;;;;;;1.40;1.30;;;;;;;;;;5977305;29;20265;-69
2023/07/04 17:14:32;;;;;;;2.42;1.40;;;;;;;;;;5977794;29;20471;-70
2023/07/04 17:17:39;;;;;;;2.90;1.10;;;;;;;;;;6018348;29;20298;-70
2023/07/04 17:20:44;;;;;;;1.20;1.20;;;;;;;;;;6022392;29;20247;-71
2023/07/04 17:23:49;;;;;;;1.40;1.30;;;;;;;;;;6022908;29;20255;-68
2023/07/04 17:26:57;;;;;;;1.27;1.17;;;;;;;;;;6022480;29;20508;-70
2023/07/04 17:30:02;;;;;;;2.40;1.40;;;;;;;;;;6022125;29;20456;-69
2023/07/04 17:33:08;;;;;;;1.50;1.40;;;;;;;;;;6022875;29;20239;-70
2023/07/04 17:36:14;;;;;;;2.53;1.40;;;;;;;;;;6022370;29;20266;-70
2023/07/04 17:39:19;;;;;;;1.80;1.55;;;;;;;;;;6022644;29;20302;-69
2023/07/04 17:42:24;;;;;;;1.40;1.40;;;;;;;;;;6020779;29;20579;-69
2023/07/04 17:45:29;;;;;;;1.70;1.60;;;;;;;;;;6022697;29;20243;-70
2023/07/04 17:48:35;;;;;;;1.85;1.35;;;;;;;;;;6021013;29;20279;-70
2023/07/04 17:51:39;;;;;;;2.75;1.27;;;;;;;;;;6022384;29;20242;-70
2023/07/04 17:54:44;;;;;;;8.40;1.30;;;;;;;;;;6020714;29;20477;-69
2023/07/04 17:57:48;;;;;;;1.70;1.15;;;;;;;;;;6022520;29;20265;-69
2023/07/04 18:00:53;;;;;;;1.48;1.27;;;;;;;;;;6022159;29;20419;-69
2023/07/04 18:03:59;;;;;;;1.30;1.17;;;;;;;;;;6022106;29;20466;-70
2023/07/04 18:07:04;;;;;;;1.30;1.30;;;;;;;;;;6017050;29;20248;-69
2023/07/04 18:10:10;;;;;;;2.42;1.27;;;;;;;;;;5999872;29;20528;-70
2023/07/04 18:13:15;;;;;;;1.23;1.23;;;;;;;;;;5999456;29;20248;-69
2023/07/04 18:16:20;;;;;;;1.60;1.50;;;;;;;;;;5999385;29;20294;-70
2023/07/04 18:19:26;;;;;;;1.33;1.33;;;;;;;;;;6002690;29;20247;-69
2023/07/04 18:22:31;;;;;;;4.07;1.50;;;;;;;;;;6002753;29;20324;-70
2023/07/04 18:25:37;;;;;;;3.60;1.20;;;;;;;;;;6003326;29;20252;-69
2023/07/04 18:28:43;;;;;;;1.77;1.70;;;;;;;;;;6003322;29;20512;-69
2023/07/04 18:31:49;;;;;;;7.15;1.60;;;;;;;;;;6003622;29;20425;-69
2023/07/04 18:34:58;;;;;;;7.40;1.70;;;;;;;;;;6017203;29;20303;-68
2023/07/04 18:38:03;;;;;;;7.53;1.98;;;;;;;;;;6003556;29;20255;-70